sensor_id;sensor_type;location;lat;lon;timestamp;P1;durP1;ratioP1;P2;durP2;ratioP2
68614;SDS011;55593;51.994;5.882;2022-09-09T00:01:00;6.57;;;4.03;;
68614;SDS011;55593;51.994;5.882;2022-09-09T00:03:38;5.28;;;3.78;;
68614;SDS011;55593;51.994;5.882;2022-09-09T00:06:15;6.32;;;3.90;;
68614;SDS011;55593;51.994;5.882;2022-09-09T00:09:09;7.00;;;4.13;;
68614;SDS011;55593;51.994;5.882;2022-09-09T00:11:40;5.22;;;3.90;;
68614;SDS011;55593;51.994;5.882;2022-09-09T00:14:14;9.77;;;5.05;;
68614;SDS011;55593;51.994;5.882;2022-09-09T00:16:50;7.22;;;4.63;;
68614;SDS011;55593;51.994;5.882;2022-09-09T00:19:23;7.35;;;4.32;;
68614;SDS011;55593;51.994;5.882;2022-09-09T00:22:00;7.97;;;4.85;;
68614;SDS011;55593;51.994;5.882;2022-09-09T00:24:41;8.38;;;4.70;;
68614;SDS011;55593;51.994;5.882;2022-09-09T00:27:14;5.22;;;3.95;;
68614;SDS011;55593;51.994;5.882;2022-09-09T00:29:51;6.90;;;4.15;;
68614;SDS011;55593;51.994;5.882;2022-09-09T00:32:22;7.15;;;4.10;;
68614;SDS011;55593;51.994;5.882;2022-09-09T00:34:54;9.05;;;4.70;;
68614;SDS011;55593;51.994;5.882;2022-09-09T00:37:25;8.50;;;4.07;;
68614;SDS011;55593;51.994;5.882;2022-09-09T00:40:00;6.32;;;4.10;;
68614;SDS011;55593;51.994;5.882;2022-09-09T00:42:34;6.68;;;4.35;;
68614;SDS011;55593;51.994;5.882;2022-09-09T00:45:09;5.38;;;4.15;;
68614;SDS011;55593;51.994;5.882;2022-09-09T00:47:46;7.25;;;4.00;;
68614;SDS011;55593;51.994;5.882;2022-09-09T00:50:17;13.38;;;4.05;;
68614;SDS011;55593;51.994;5.882;2022-09-09T00:53:05;9.70;;;4.23;;
68614;SDS011;55593;51.994;5.882;2022-09-09T00:55:51;8.07;;;3.85;;
68614;SDS011;55593;51.994;5.882;2022-09-09T00:58:25;7.22;;;4.53;;
68614;SDS011;55593;51.994;5.882;2022-09-09T01:00:56;8.05;;;4.10;;
68614;SDS011;55593;51.994;5.882;2022-09-09T01:03:30;5.05;;;3.95;;
68614;SDS011;55593;51.994;5.882;2022-09-09T01:06:11;5.88;;;4.13;;
68614;SDS011;55593;51.994;5.882;2022-09-09T01:11:41;6.30;;;3.70;;
68614;SDS011;55593;51.994;5.882;2022-09-09T01:14:23;9.05;;;3.95;;
68614;SDS011;55593;51.994;5.882;2022-09-09T01:16:59;5.75;;;3.60;;
68614;SDS011;55593;51.994;5.882;2022-09-09T01:19:35;6.35;;;3.30;;
68614;SDS011;55593;51.994;5.882;2022-09-09T01:22:11;4.97;;;2.95;;
68614;SDS011;55593;51.994;5.882;2022-09-09T01:24:50;5.30;;;3.20;;
68614;SDS011;55593;51.994;5.882;2022-09-09T01:27:58;5.00;;;3.22;;
68614;SDS011;55593;51.994;5.882;2022-09-09T01:30:30;5.10;;;2.90;;
68614;SDS011;55593;51.994;5.882;2022-09-09T01:33:00;7.20;;;2.92;;
68614;SDS011;55593;51.994;5.882;2022-09-09T01:35:33;7.78;;;3.08;;
68614;SDS011;55593;51.994;5.882;2022-09-09T01:38:07;6.97;;;3.08;;
68614;SDS011;55593;51.994;5.882;2022-09-09T01:40:37;6.50;;;3.00;;
68614;SDS011;55593;51.994;5.882;2022-09-09T01:43:09;4.20;;;2.40;;
68614;SDS011;55593;51.994;5.882;2022-09-09T01:45:38;5.68;;;2.60;;
68614;SDS011;55593;51.994;5.882;2022-09-09T01:48:08;4.47;;;2.67;;
68614;SDS011;55593;51.994;5.882;2022-09-09T01:50:52;6.25;;;2.85;;
68614;SDS011;55593;51.994;5.882;2022-09-09T01:53:22;5.25;;;2.70;;
68614;SDS011;55593;51.994;5.882;2022-09-09T01:55:55;7.97;;;3.05;;
68614;SDS011;55593;51.994;5.882;2022-09-09T01:58:37;6.47;;;2.80;;
68614;SDS011;55593;51.994;5.882;2022-09-09T02:01:14;5.40;;;2.45;;
68614;SDS011;55593;51.994;5.882;2022-09-09T02:03:47;4.80;;;2.63;;
68614;SDS011;55593;51.994;5.882;2022-09-09T02:06:25;4.20;;;2.42;;
68614;SDS011;55593;51.994;5.882;2022-09-09T02:09:04;3.80;;;2.47;;
68614;SDS011;55593;51.994;5.882;2022-09-09T02:11:34;5.25;;;2.47;;
68614;SDS011;55593;51.994;5.882;2022-09-09T02:14:15;4.65;;;2.50;;
68614;SDS011;55593;51.994;5.882;2022-09-09T02:16:48;6.82;;;2.40;;
68614;SDS011;55593;51.994;5.882;2022-09-09T02:19:25;4.82;;;2.67;;
68614;SDS011;55593;51.994;5.882;2022-09-09T02:22:03;3.97;;;2.72;;
68614;SDS011;55593;51.994;5.882;2022-09-09T02:24:33;5.75;;;2.67;;
68614;SDS011;55593;51.994;5.882;2022-09-09T02:27:18;4.90;;;2.80;;
68614;SDS011;55593;51.994;5.882;2022-09-09T02:29:52;6.35;;;3.05;;
68614;SDS011;55593;51.994;5.882;2022-09-09T02:32:34;4.63;;;3.15;;
68614;SDS011;55593;51.994;5.882;2022-09-09T02:35:08;9.65;;;3.90;;
68614;SDS011;55593;51.994;5.882;2022-09-09T02:37:42;6.35;;;3.10;;
68614;SDS011;55593;51.994;5.882;2022-09-09T02:40:13;6.22;;;3.15;;
68614;SDS011;55593;51.994;5.882;2022-09-09T02:42:49;5.10;;;3.20;;
68614;SDS011;55593;51.994;5.882;2022-09-09T02:45:22;5.97;;;3.22;;
68614;SDS011;55593;51.994;5.882;2022-09-09T02:47:55;6.93;;;3.70;;
68614;SDS011;55593;51.994;5.882;2022-09-09T02:50:30;6.00;;;3.33;;
68614;SDS011;55593;51.994;5.882;2022-09-09T02:53:06;7.15;;;3.53;;
68614;SDS011;55593;51.994;5.882;2022-09-09T02:55:40;6.63;;;3.65;;
68614;SDS011;55593;51.994;5.882;2022-09-09T02:58:12;5.90;;;3.53;;
68614;SDS011;55593;51.994;5.882;2022-09-09T03:00:55;8.35;;;3.38;;
68614;SDS011;55593;51.994;5.882;2022-09-09T03:03:27;6.90;;;3.50;;
68614;SDS011;55593;51.994;5.882;2022-09-09T03:05:57;7.53;;;4.05;;
68614;SDS011;55593;51.994;5.882;2022-09-09T03:08:27;6.43;;;3.85;;
68614;SDS011;55593;51.994;5.882;2022-09-09T03:10:58;10.05;;;3.70;;
68614;SDS011;55593;51.994;5.882;2022-09-09T03:13:30;6.03;;;4.13;;
68614;SDS011;55593;51.994;5.882;2022-09-09T03:16:02;5.90;;;3.60;;
68614;SDS011;55593;51.994;5.882;2022-09-09T03:18:37;5.32;;;3.22;;
68614;SDS011;55593;51.994;5.882;2022-09-09T03:21:07;5.45;;;3.47;;
68614;SDS011;55593;51.994;5.882;2022-09-09T03:23:37;5.95;;;3.55;;
68614;SDS011;55593;51.994;5.882;2022-09-09T03:26:07;7.85;;;3.92;;
68614;SDS011;55593;51.994;5.882;2022-09-09T03:28:43;5.70;;;3.22;;
68614;SDS011;55593;51.994;5.882;2022-09-09T03:31:19;8.05;;;3.50;;
68614;SDS011;55593;51.994;5.882;2022-09-09T03:33:48;5.97;;;3.05;;
68614;SDS011;55593;51.994;5.882;2022-09-09T03:36:19;5.82;;;3.58;;
68614;SDS011;55593;51.994;5.882;2022-09-09T03:38:48;6.68;;;3.85;;
68614;SDS011;55593;51.994;5.882;2022-09-09T03:41:17;9.52;;;3.72;;
68614;SDS011;55593;51.994;5.882;2022-09-09T03:43:46;9.00;;;3.47;;
68614;SDS011;55593;51.994;5.882;2022-09-09T03:46:19;5.55;;;3.63;;
68614;SDS011;55593;51.994;5.882;2022-09-09T03:48:50;5.57;;;3.97;;
68614;SDS011;55593;51.994;5.882;2022-09-09T03:51:19;9.80;;;3.60;;
68614;SDS011;55593;51.994;5.882;2022-09-09T03:53:48;14.80;;;4.25;;
68614;SDS011;55593;51.994;5.882;2022-09-09T03:56:18;8.38;;;3.88;;
68614;SDS011;55593;51.994;5.882;2022-09-09T03:58:47;8.57;;;4.00;;
68614;SDS011;55593;51.994;5.882;2022-09-09T04:01:19;10.88;;;3.85;;
68614;SDS011;55593;51.994;5.882;2022-09-09T04:03:48;6.22;;;3.75;;
68614;SDS011;55593;51.994;5.882;2022-09-09T04:06:18;6.03;;;3.95;;
68614;SDS011;55593;51.994;5.882;2022-09-09T04:08:48;7.63;;;4.47;;
68614;SDS011;55593;51.994;5.882;2022-09-09T04:11:18;8.98;;;4.22;;
68614;SDS011;55593;51.994;5.882;2022-09-09T04:13:51;6.80;;;3.90;;
68614;SDS011;55593;51.994;5.882;2022-09-09T04:16:22;6.93;;;4.05;;
68614;SDS011;55593;51.994;5.882;2022-09-09T04:18:51;6.82;;;4.10;;
68614;SDS011;55593;51.994;5.882;2022-09-09T04:21:21;7.40;;;3.78;;
68614;SDS011;55593;51.994;5.882;2022-09-09T04:23:51;9.75;;;3.90;;
68614;SDS011;55593;51.994;5.882;2022-09-09T04:26:20;9.57;;;4.22;;
68614;SDS011;55593;51.994;5.882;2022-09-09T04:28:49;5.82;;;3.95;;
68614;SDS011;55593;51.994;5.882;2022-09-09T04:31:19;11.05;;;4.05;;
68614;SDS011;55593;51.994;5.882;2022-09-09T04:33:55;7.93;;;3.97;;
68614;SDS011;55593;51.994;5.882;2022-09-09T04:36:28;8.68;;;3.70;;
68614;SDS011;55593;51.994;5.882;2022-09-09T04:39:00;11.32;;;4.45;;
68614;SDS011;55593;51.994;5.882;2022-09-09T04:41:29;7.30;;;3.95;;
68614;SDS011;55593;51.994;5.882;2022-09-09T04:43:59;7.45;;;3.80;;
68614;SDS011;55593;51.994;5.882;2022-09-09T04:46:32;10.20;;;4.10;;
68614;SDS011;55593;51.994;5.882;2022-09-09T04:49:02;5.40;;;3.58;;
68614;SDS011;55593;51.994;5.882;2022-09-09T04:51:33;9.82;;;3.85;;
68614;SDS011;55593;51.994;5.882;2022-09-09T04:54:02;10.70;;;4.40;;
68614;SDS011;55593;51.994;5.882;2022-09-09T04:56:31;7.32;;;4.20;;
68614;SDS011;55593;51.994;5.882;2022-09-09T04:59:02;10.60;;;4.00;;
68614;SDS011;55593;51.994;5.882;2022-09-09T05:01:43;10.40;;;3.88;;
68614;SDS011;55593;51.994;5.882;2022-09-09T05:04:12;10.70;;;4.35;;
68614;SDS011;55593;51.994;5.882;2022-09-09T05:06:42;9.98;;;4.43;;
68614;SDS011;55593;51.994;5.882;2022-09-09T05:09:12;14.98;;;3.95;;
68614;SDS011;55593;51.994;5.882;2022-09-09T05:11:43;7.80;;;3.67;;
68614;SDS011;55593;51.994;5.882;2022-09-09T05:14:34;12.32;;;3.70;;
68614;SDS011;55593;51.994;5.882;2022-09-09T05:17:07;9.63;;;3.78;;
68614;SDS011;55593;51.994;5.882;2022-09-09T05:19:38;11.85;;;3.83;;
68614;SDS011;55593;51.994;5.882;2022-09-09T05:22:07;9.10;;;3.65;;
68614;SDS011;55593;51.994;5.882;2022-09-09T05:24:42;8.98;;;3.70;;
68614;SDS011;55593;51.994;5.882;2022-09-09T05:27:12;12.77;;;4.00;;
68614;SDS011;55593;51.994;5.882;2022-09-09T05:29:41;8.88;;;3.90;;
68614;SDS011;55593;51.994;5.882;2022-09-09T05:32:13;9.73;;;3.80;;
68614;SDS011;55593;51.994;5.882;2022-09-09T05:34:46;10.23;;;3.65;;
68614;SDS011;55593;51.994;5.882;2022-09-09T05:37:17;11.73;;;3.75;;
68614;SDS011;55593;51.994;5.882;2022-09-09T05:39:46;14.13;;;3.80;;
68614;SDS011;55593;51.994;5.882;2022-09-09T05:42:16;7.65;;;3.00;;
68614;SDS011;55593;51.994;5.882;2022-09-09T05:44:45;10.52;;;3.85;;
68614;SDS011;55593;51.994;5.882;2022-09-09T05:47:18;11.45;;;3.70;;
68614;SDS011;55593;51.994;5.882;2022-09-09T05:49:48;15.32;;;4.03;;
68614;SDS011;55593;51.994;5.882;2022-09-09T05:52:17;8.57;;;3.40;;
68614;SDS011;55593;51.994;5.882;2022-09-09T05:54:46;16.17;;;4.18;;
68614;SDS011;55593;51.994;5.882;2022-09-09T05:57:16;10.10;;;3.22;;
68614;SDS011;55593;51.994;5.882;2022-09-09T05:59:46;9.00;;;3.25;;
68614;SDS011;55593;51.994;5.882;2022-09-09T06:02:15;15.27;;;4.70;;
68614;SDS011;55593;51.994;5.882;2022-09-09T06:04:47;11.73;;;5.13;;
68614;SDS011;55593;51.994;5.882;2022-09-09T06:07:16;9.32;;;3.75;;
68614;SDS011;55593;51.994;5.882;2022-09-09T06:09:45;8.85;;;4.18;;
68614;SDS011;55593;51.994;5.882;2022-09-09T06:12:17;10.18;;;4.15;;
68614;SDS011;55593;51.994;5.882;2022-09-09T06:14:46;10.60;;;3.92;;
68614;SDS011;55593;51.994;5.882;2022-09-09T06:17:17;12.02;;;4.53;;
68614;SDS011;55593;51.994;5.882;2022-09-09T06:19:48;10.70;;;4.07;;
68614;SDS011;55593;51.994;5.882;2022-09-09T06:22:19;12.02;;;3.83;;
68614;SDS011;55593;51.994;5.882;2022-09-09T06:24:48;11.50;;;3.72;;
68614;SDS011;55593;51.994;5.882;2022-09-09T06:27:19;10.15;;;3.92;;
68614;SDS011;55593;51.994;5.882;2022-09-09T06:29:48;9.48;;;3.83;;
68614;SDS011;55593;51.994;5.882;2022-09-09T06:32:17;12.80;;;4.20;;
68614;SDS011;55593;51.994;5.882;2022-09-09T06:34:49;12.93;;;4.60;;
68614;SDS011;55593;51.994;5.882;2022-09-09T06:37:18;13.00;;;4.05;;
68614;SDS011;55593;51.994;5.882;2022-09-09T06:39:50;11.20;;;4.10;;
68614;SDS011;55593;51.994;5.882;2022-09-09T06:42:20;11.30;;;3.78;;
68614;SDS011;55593;51.994;5.882;2022-09-09T06:45:04;11.95;;;4.15;;
68614;SDS011;55593;51.994;5.882;2022-09-09T06:47:38;14.65;;;5.30;;
68614;SDS011;55593;51.994;5.882;2022-09-09T06:50:10;8.73;;;3.20;;
68614;SDS011;55593;51.994;5.882;2022-09-09T06:52:40;15.43;;;4.15;;
68614;SDS011;55593;51.994;5.882;2022-09-09T06:55:09;16.70;;;4.00;;
68614;SDS011;55593;51.994;5.882;2022-09-09T06:57:44;12.05;;;3.42;;
68614;SDS011;55593;51.994;5.882;2022-09-09T07:00:21;17.95;;;4.25;;
68614;SDS011;55593;51.994;5.882;2022-09-09T07:02:50;17.35;;;4.55;;
68614;SDS011;55593;51.994;5.882;2022-09-09T07:05:23;12.40;;;3.83;;
68614;SDS011;55593;51.994;5.882;2022-09-09T07:07:52;13.35;;;3.55;;
68614;SDS011;55593;51.994;5.882;2022-09-09T07:10:22;11.93;;;3.58;;
68614;SDS011;55593;51.994;5.882;2022-09-09T07:12:51;11.85;;;3.47;;
68614;SDS011;55593;51.994;5.882;2022-09-09T07:15:23;20.77;;;3.88;;
68614;SDS011;55593;51.994;5.882;2022-09-09T07:17:54;11.27;;;3.47;;
68614;SDS011;55593;51.994;5.882;2022-09-09T07:20:25;13.95;;;3.65;;
68614;SDS011;55593;51.994;5.882;2022-09-09T07:22:55;10.05;;;3.85;;
68614;SDS011;55593;51.994;5.882;2022-09-09T07:25:25;14.15;;;3.53;;
68614;SDS011;55593;51.994;5.882;2022-09-09T07:27:57;13.07;;;3.88;;
68614;SDS011;55593;51.994;5.882;2022-09-09T07:30:26;10.77;;;3.38;;
68614;SDS011;55593;51.994;5.882;2022-09-09T07:32:55;10.45;;;3.67;;
68614;SDS011;55593;51.994;5.882;2022-09-09T07:35:28;20.15;;;4.57;;
68614;SDS011;55593;51.994;5.882;2022-09-09T07:37:57;17.40;;;3.83;;
68614;SDS011;55593;51.994;5.882;2022-09-09T07:40:26;9.63;;;4.97;;
68614;SDS011;55593;51.994;5.882;2022-09-09T07:42:56;14.05;;;4.28;;
68614;SDS011;55593;51.994;5.882;2022-09-09T07:45:25;23.38;;;6.70;;
68614;SDS011;55593;51.994;5.882;2022-09-09T07:47:56;12.20;;;3.95;;
68614;SDS011;55593;51.994;5.882;2022-09-09T07:50:28;12.25;;;4.45;;
68614;SDS011;55593;51.994;5.882;2022-09-09T07:52:57;13.15;;;4.07;;
68614;SDS011;55593;51.994;5.882;2022-09-09T07:55:28;14.05;;;3.75;;
68614;SDS011;55593;51.994;5.882;2022-09-09T07:57:58;12.77;;;4.10;;
68614;SDS011;55593;51.994;5.882;2022-09-09T08:00:27;10.65;;;3.60;;
68614;SDS011;55593;51.994;5.882;2022-09-09T08:02:57;21.25;;;4.03;;
68614;SDS011;55593;51.994;5.882;2022-09-09T08:05:30;17.33;;;3.75;;
68614;SDS011;55593;51.994;5.882;2022-09-09T08:08:00;14.93;;;3.67;;
68614;SDS011;55593;51.994;5.882;2022-09-09T08:10:30;17.05;;;3.85;;
68614;SDS011;55593;51.994;5.882;2022-09-09T08:12:59;12.30;;;3.00;;
68614;SDS011;55593;51.994;5.882;2022-09-09T08:15:28;10.90;;;3.05;;
68614;SDS011;55593;51.994;5.882;2022-09-09T08:17:58;10.23;;;3.53;;
68614;SDS011;55593;51.994;5.882;2022-09-09T08:20:32;14.77;;;3.58;;
68614;SDS011;55593;51.994;5.882;2022-09-09T08:23:01;12.60;;;3.05;;
68614;SDS011;55593;51.994;5.882;2022-09-09T08:25:30;10.70;;;2.70;;
68614;SDS011;55593;51.994;5.882;2022-09-09T08:28:00;10.68;;;3.58;;
68614;SDS011;55593;51.994;5.882;2022-09-09T08:30:30;11.48;;;3.17;;
68614;SDS011;55593;51.994;5.882;2022-09-09T08:32:59;13.88;;;3.63;;
68614;SDS011;55593;51.994;5.882;2022-09-09T08:35:32;15.75;;;3.70;;
68614;SDS011;55593;51.994;5.882;2022-09-09T08:38:01;9.93;;;3.45;;
68614;SDS011;55593;51.994;5.882;2022-09-09T08:40:32;15.55;;;4.18;;
68614;SDS011;55593;51.994;5.882;2022-09-09T08:43:01;19.52;;;3.63;;
68614;SDS011;55593;51.994;5.882;2022-09-09T08:45:33;9.73;;;2.67;;
68614;SDS011;55593;51.994;5.882;2022-09-09T08:48:10;14.88;;;3.08;;
68614;SDS011;55593;51.994;5.882;2022-09-09T08:50:46;17.00;;;2.85;;
68614;SDS011;55593;51.994;5.882;2022-09-09T08:53:22;11.18;;;3.35;;
68614;SDS011;55593;51.994;5.882;2022-09-09T08:55:56;14.05;;;3.00;;
68614;SDS011;55593;51.994;5.882;2022-09-09T08:58:42;11.98;;;3.40;;
68614;SDS011;55593;51.994;5.882;2022-09-09T09:01:17;9.95;;;2.83;;
68614;SDS011;55593;51.994;5.882;2022-09-09T09:04:02;13.57;;;3.23;;
68614;SDS011;55593;51.994;5.882;2022-09-09T09:06:42;12.77;;;2.40;;
68614;SDS011;55593;51.994;5.882;2022-09-09T09:09:18;10.43;;;2.13;;
68614;SDS011;55593;51.994;5.882;2022-09-09T09:11:53;12.05;;;2.78;;
68614;SDS011;55593;51.994;5.882;2022-09-09T09:14:29;13.50;;;2.55;;
68614;SDS011;55593;51.994;5.882;2022-09-09T09:17:03;11.05;;;2.17;;
68614;SDS011;55593;51.994;5.882;2022-09-09T09:19:34;16.77;;;3.40;;
68614;SDS011;55593;51.994;5.882;2022-09-09T09:22:10;9.63;;;2.45;;
68614;SDS011;55593;51.994;5.882;2022-09-09T09:24:49;13.50;;;2.25;;
68614;SDS011;55593;51.994;5.882;2022-09-09T09:27:27;9.85;;;1.95;;
68614;SDS011;55593;51.994;5.882;2022-09-09T09:30:00;9.07;;;2.55;;
68614;SDS011;55593;51.994;5.882;2022-09-09T09:32:33;9.07;;;2.50;;
68614;SDS011;55593;51.994;5.882;2022-09-09T09:35:06;10.00;;;2.30;;
68614;SDS011;55593;51.994;5.882;2022-09-09T09:37:42;14.35;;;3.55;;
68614;SDS011;55593;51.994;5.882;2022-09-09T09:40:14;14.27;;;3.28;;
68614;SDS011;55593;51.994;5.882;2022-09-09T09:42:48;13.02;;;3.38;;
68614;SDS011;55593;51.994;5.882;2022-09-09T09:45:25;9.50;;;2.10;;
68614;SDS011;55593;51.994;5.882;2022-09-09T09:47:59;7.53;;;2.55;;
68614;SDS011;55593;51.994;5.882;2022-09-09T09:50:32;9.80;;;2.17;;
68614;SDS011;55593;51.994;5.882;2022-09-09T09:53:05;11.60;;;3.08;;
68614;SDS011;55593;51.994;5.882;2022-09-09T09:55:48;8.95;;;1.88;;
68614;SDS011;55593;51.994;5.882;2022-09-09T09:58:22;9.73;;;2.50;;
68614;SDS011;55593;51.994;5.882;2022-09-09T10:00:52;9.13;;;2.33;;
68614;SDS011;55593;51.994;5.882;2022-09-09T10:03:26;10.10;;;2.10;;
68614;SDS011;55593;51.994;5.882;2022-09-09T10:05:58;6.75;;;2.33;;
68614;SDS011;55593;51.994;5.882;2022-09-09T10:08:33;9.80;;;2.67;;
68614;SDS011;55593;51.994;5.882;2022-09-09T10:11:15;8.27;;;2.03;;
68614;SDS011;55593;51.994;5.882;2022-09-09T10:13:54;14.02;;;2.45;;
68614;SDS011;55593;51.994;5.882;2022-09-09T10:16:37;8.90;;;2.63;;
68614;SDS011;55593;51.994;5.882;2022-09-09T10:19:13;18.60;;;3.17;;
68614;SDS011;55593;51.994;5.882;2022-09-09T10:21:56;10.48;;;2.40;;
68614;SDS011;55593;51.994;5.882;2022-09-09T10:27:40;13.57;;;2.63;;
68614;SDS011;55593;51.994;5.882;2022-09-09T10:30:16;11.15;;;2.95;;
68614;SDS011;55593;51.994;5.882;2022-09-09T10:32:48;8.65;;;1.88;;
68614;SDS011;55593;51.994;5.882;2022-09-09T10:35:25;11.23;;;2.30;;
68614;SDS011;55593;51.994;5.882;2022-09-09T10:38:03;11.55;;;2.53;;
68614;SDS011;55593;51.994;5.882;2022-09-09T10:40:42;11.63;;;3.47;;
68614;SDS011;55593;51.994;5.882;2022-09-09T10:43:23;12.73;;;2.47;;
68614;SDS011;55593;51.994;5.882;2022-09-09T10:46:03;11.45;;;2.95;;
68614;SDS011;55593;51.994;5.882;2022-09-09T10:48:41;15.30;;;3.00;;
68614;SDS011;55593;51.994;5.882;2022-09-09T10:51:28;12.15;;;2.55;;
68614;SDS011;55593;51.994;5.882;2022-09-09T10:54:05;8.23;;;2.20;;
68614;SDS011;55593;51.994;5.882;2022-09-09T10:56:42;10.50;;;2.17;;
68614;SDS011;55593;51.994;5.882;2022-09-09T10:59:17;12.98;;;2.30;;
68614;SDS011;55593;51.994;5.882;2022-09-09T11:01:51;8.50;;;2.30;;
68614;SDS011;55593;51.994;5.882;2022-09-09T11:04:22;12.43;;;2.92;;
68614;SDS011;55593;51.994;5.882;2022-09-09T11:06:54;14.68;;;2.20;;
68614;SDS011;55593;51.994;5.882;2022-09-09T11:09:24;16.98;;;2.90;;
68614;SDS011;55593;51.994;5.882;2022-09-09T11:11:56;6.93;;;2.47;;
68614;SDS011;55593;51.994;5.882;2022-09-09T11:14:31;11.05;;;2.30;;
68614;SDS011;55593;51.994;5.882;2022-09-09T11:17:04;9.80;;;2.53;;
68614;SDS011;55593;51.994;5.882;2022-09-09T11:19:35;13.80;;;2.63;;
68614;SDS011;55593;51.994;5.882;2022-09-09T11:22:06;8.30;;;2.40;;
68614;SDS011;55593;51.994;5.882;2022-09-09T11:24:37;13.63;;;2.80;;
68614;SDS011;55593;51.994;5.882;2022-09-09T11:27:10;8.65;;;2.50;;
68614;SDS011;55593;51.994;5.882;2022-09-09T11:32:54;13.75;;;3.30;;
68614;SDS011;55593;51.994;5.882;2022-09-09T11:35:31;8.98;;;2.63;;
68614;SDS011;55593;51.994;5.882;2022-09-09T11:38:18;11.32;;;2.65;;
68614;SDS011;55593;51.994;5.882;2022-09-09T11:40:54;14.00;;;3.38;;
68614;SDS011;55593;51.994;5.882;2022-09-09T11:43:26;8.40;;;2.55;;
68614;SDS011;55593;51.994;5.882;2022-09-09T11:46:00;7.63;;;1.92;;
68614;SDS011;55593;51.994;5.882;2022-09-09T11:48:34;10.07;;;2.30;;
68614;SDS011;55593;51.994;5.882;2022-09-09T11:51:05;7.22;;;2.50;;
68614;SDS011;55593;51.994;5.882;2022-09-09T11:53:47;8.57;;;2.38;;
68614;SDS011;55593;51.994;5.882;2022-09-09T11:56:27;8.25;;;2.38;;
68614;SDS011;55593;51.994;5.882;2022-09-09T11:58:59;6.05;;;2.03;;
68614;SDS011;55593;51.994;5.882;2022-09-09T12:01:37;7.40;;;2.40;;
68614;SDS011;55593;51.994;5.882;2022-09-09T12:04:13;9.77;;;2.95;;
68614;SDS011;55593;51.994;5.882;2022-09-09T12:06:45;10.80;;;2.50;;
68614;SDS011;55593;51.994;5.882;2022-09-09T12:09:18;9.70;;;2.75;;
68614;SDS011;55593;51.994;5.882;2022-09-09T12:11:50;10.18;;;3.13;;
68614;SDS011;55593;51.994;5.882;2022-09-09T12:14:20;11.93;;;2.63;;
68614;SDS011;55593;51.994;5.882;2022-09-09T12:16:53;8.68;;;2.78;;
68614;SDS011;55593;51.994;5.882;2022-09-09T12:19:22;8.32;;;2.47;;
68614;SDS011;55593;51.994;5.882;2022-09-09T12:21:54;12.10;;;2.90;;
68614;SDS011;55593;51.994;5.882;2022-09-09T12:24:30;12.73;;;2.78;;
68614;SDS011;55593;51.994;5.882;2022-09-09T12:27:04;9.75;;;2.75;;
68614;SDS011;55593;51.994;5.882;2022-09-09T12:29:38;6.43;;;2.40;;
68614;SDS011;55593;51.994;5.882;2022-09-09T12:32:14;8.35;;;2.83;;
68614;SDS011;55593;51.994;5.882;2022-09-09T12:34:52;8.80;;;2.47;;
68614;SDS011;55593;51.994;5.882;2022-09-09T12:37:24;5.18;;;2.00;;
68614;SDS011;55593;51.994;5.882;2022-09-09T12:39:56;9.30;;;2.33;;
68614;SDS011;55593;51.994;5.882;2022-09-09T12:42:28;9.02;;;2.85;;
68614;SDS011;55593;51.994;5.882;2022-09-09T12:44:59;6.80;;;2.55;;
68614;SDS011;55593;51.994;5.882;2022-09-09T12:47:34;6.90;;;2.67;;
68614;SDS011;55593;51.994;5.882;2022-09-09T12:50:15;9.20;;;2.38;;
68614;SDS011;55593;51.994;5.882;2022-09-09T12:52:45;10.25;;;3.20;;
68614;SDS011;55593;51.994;5.882;2022-09-09T12:55:16;6.25;;;2.28;;
68614;SDS011;55593;51.994;5.882;2022-09-09T12:57:48;6.70;;;2.72;;
68614;SDS011;55593;51.994;5.882;2022-09-09T13:00:19;7.38;;;2.45;;
68614;SDS011;55593;51.994;5.882;2022-09-09T13:02:53;6.53;;;2.30;;
68614;SDS011;55593;51.994;5.882;2022-09-09T13:05:25;12.60;;;2.42;;
68614;SDS011;55593;51.994;5.882;2022-09-09T13:08:00;7.88;;;2.33;;
68614;SDS011;55593;51.994;5.882;2022-09-09T13:10:31;5.95;;;2.30;;
68614;SDS011;55593;51.994;5.882;2022-09-09T13:13:02;6.90;;;2.70;;
68614;SDS011;55593;51.994;5.882;2022-09-09T13:15:33;6.50;;;2.75;;
68614;SDS011;55593;51.994;5.882;2022-09-09T13:18:05;7.60;;;2.75;;
68614;SDS011;55593;51.994;5.882;2022-09-09T13:20:36;8.48;;;2.95;;
68614;SDS011;55593;51.994;5.882;2022-09-09T13:23:05;8.95;;;2.80;;
68614;SDS011;55593;51.994;5.882;2022-09-09T13:25:37;8.05;;;2.42;;
68614;SDS011;55593;51.994;5.882;2022-09-09T13:28:18;8.93;;;2.95;;
68614;SDS011;55593;51.994;5.882;2022-09-09T13:30:57;7.28;;;2.75;;
68614;SDS011;55593;51.994;5.882;2022-09-09T13:33:34;10.45;;;3.00;;
68614;SDS011;55593;51.994;5.882;2022-09-09T13:36:04;6.45;;;2.75;;
68614;SDS011;55593;51.994;5.882;2022-09-09T13:38:37;9.40;;;3.08;;
68614;SDS011;55593;51.994;5.882;2022-09-09T13:41:07;6.10;;;2.72;;
68614;SDS011;55593;51.994;5.882;2022-09-09T13:43:41;5.93;;;2.55;;
68614;SDS011;55593;51.994;5.882;2022-09-09T13:46:24;7.85;;;2.80;;
68614;SDS011;55593;51.994;5.882;2022-09-09T13:51:51;7.53;;;2.95;;
68614;SDS011;55593;51.994;5.882;2022-09-09T13:54:21;9.75;;;2.72;;
68614;SDS011;55593;51.994;5.882;2022-09-09T13:56:50;8.32;;;2.63;;
68614;SDS011;55593;51.994;5.882;2022-09-09T13:59:21;7.53;;;2.90;;
68614;SDS011;55593;51.994;5.882;2022-09-09T14:01:50;10.85;;;4.00;;
68614;SDS011;55593;51.994;5.882;2022-09-09T14:04:22;5.60;;;2.53;;
68614;SDS011;55593;51.994;5.882;2022-09-09T14:06:51;6.72;;;2.38;;
68614;SDS011;55593;51.994;5.882;2022-09-09T14:09:20;8.95;;;2.60;;
68614;SDS011;55593;51.994;5.882;2022-09-09T14:11:49;11.70;;;2.65;;
68614;SDS011;55593;51.994;5.882;2022-09-09T14:14:18;8.52;;;2.30;;
68614;SDS011;55593;51.994;5.882;2022-09-09T14:16:47;8.27;;;1.90;;
68614;SDS011;55593;51.994;5.882;2022-09-09T14:19:16;8.45;;;1.80;;
68614;SDS011;55593;51.994;5.882;2022-09-09T14:21:48;8.10;;;1.90;;
68614;SDS011;55593;51.994;5.882;2022-09-09T14:24:17;7.43;;;2.05;;
68614;SDS011;55593;51.994;5.882;2022-09-09T14:26:46;5.63;;;1.90;;
68614;SDS011;55593;51.994;5.882;2022-09-09T14:29:16;6.60;;;1.90;;
68614;SDS011;55593;51.994;5.882;2022-09-09T14:31:45;6.32;;;1.85;;
68614;SDS011;55593;51.994;5.882;2022-09-09T14:34:14;15.00;;;2.13;;
68614;SDS011;55593;51.994;5.882;2022-09-09T14:36:44;5.80;;;2.38;;
68614;SDS011;55593;51.994;5.882;2022-09-09T14:39:16;9.20;;;2.85;;
68614;SDS011;55593;51.994;5.882;2022-09-09T14:41:45;8.70;;;3.08;;
68614;SDS011;55593;51.994;5.882;2022-09-09T14:44:14;10.60;;;3.85;;
68614;SDS011;55593;51.994;5.882;2022-09-09T14:46:44;8.63;;;2.35;;
68614;SDS011;55593;51.994;5.882;2022-09-09T14:49:16;10.00;;;2.30;;
68614;SDS011;55593;51.994;5.882;2022-09-09T14:51:45;5.55;;;2.08;;
68614;SDS011;55593;51.994;5.882;2022-09-09T14:54:17;8.57;;;2.45;;
68614;SDS011;55593;51.994;5.882;2022-09-09T14:56:47;5.93;;;1.80;;
68614;SDS011;55593;51.994;5.882;2022-09-09T14:59:16;9.80;;;2.15;;
68614;SDS011;55593;51.994;5.882;2022-09-09T15:01:45;7.88;;;2.45;;
68614;SDS011;55593;51.994;5.882;2022-09-09T15:04:14;9.48;;;2.42;;
68614;SDS011;55593;51.994;5.882;2022-09-09T15:06:44;6.05;;;2.10;;
68614;SDS011;55593;51.994;5.882;2022-09-09T15:09:16;6.38;;;2.28;;
68614;SDS011;55593;51.994;5.882;2022-09-09T15:11:45;8.48;;;2.20;;
68614;SDS011;55593;51.994;5.882;2022-09-09T15:14:15;10.65;;;2.85;;
68614;SDS011;55593;51.994;5.882;2022-09-09T15:16:44;6.88;;;1.92;;
68614;SDS011;55593;51.994;5.882;2022-09-09T15:19:13;6.78;;;2.33;;
68614;SDS011;55593;51.994;5.882;2022-09-09T15:21:42;9.23;;;2.72;;
68614;SDS011;55593;51.994;5.882;2022-09-09T15:24:11;12.32;;;4.43;;
68614;SDS011;55593;51.994;5.882;2022-09-09T15:26:44;5.43;;;2.58;;
68614;SDS011;55593;51.994;5.882;2022-09-09T15:29:14;7.63;;;2.50;;